createdAt,value
2019-02-23T00:01:07.948Z,11.80
2019-02-23T00:03:35.589Z,11.80
2019-02-23T00:06:03.514Z,11.80
2019-02-23T00:08:30.929Z,11.80
2019-02-23T00:10:58.559Z,11.70
2019-02-23T00:13:25.981Z,11.70
2019-02-23T00:15:53.892Z,11.70
2019-02-23T00:18:21.154Z,11.70
2019-02-23T00:20:48.728Z,11.70
2019-02-23T00:23:16.328Z,11.60
2019-02-23T00:25:44.319Z,11.60
2019-02-23T00:28:11.984Z,11.60
2019-02-23T00:30:39.679Z,11.60
2019-02-23T00:33:07.540Z,11.60
2019-02-23T00:35:35.311Z,11.60
2019-02-23T00:38:03.018Z,11.50
2019-02-23T00:40:33.508Z,11.50
2019-02-23T00:43:19.457Z,11.50
2019-02-23T00:45:46.654Z,11.50
2019-02-23T00:48:13.997Z,11.50
2019-02-23T00:50:41.603Z,11.80
2019-02-23T00:53:09.312Z,11.50
2019-02-23T00:55:37.274Z,11.40
2019-02-23T00:58:05.104Z,11.40
2019-02-23T01:00:33.208Z,11.50
2019-02-23T01:03:00.679Z,11.40
2019-02-23T01:05:28.229Z,11.50
2019-02-23T01:07:55.953Z,11.40
2019-02-23T01:10:23.505Z,11.40
2019-02-23T01:12:51.151Z,11.40
2019-02-23T01:15:19.803Z,11.40
2019-02-23T01:17:47.585Z,11.40
2019-02-23T01:20:15.374Z,11.30
2019-02-23T01:22:43.312Z,11.40
2019-02-23T01:25:10.858Z,11.30
2019-02-23T01:27:38.476Z,11.30
2019-02-23T01:30:09.184Z,11.30
2019-02-23T01:32:36.739Z,11.40
2019-02-23T01:35:04.205Z,11.30
2019-02-23T01:37:31.803Z,11.30
2019-02-23T01:39:59.511Z,11.30
2019-02-23T01:42:27.349Z,11.20
2019-02-23T01:44:55.121Z,11.20
2019-02-23T01:47:22.590Z,11.20
2019-02-23T01:49:58.546Z,11.20
2019-02-23T01:52:20.063Z,11.20
2019-02-23T01:54:47.873Z,11.20
2019-02-23T01:57:15.550Z,11.20
2019-02-23T01:59:43.067Z,11.20
2019-02-23T02:02:11.450Z,11.10
2019-02-23T02:04:39.665Z,11.10
2019-02-23T02:07:07.251Z,10.80
2019-02-23T02:09:35.299Z,11.10
2019-02-23T02:12:03.535Z,11.10
2019-02-23T02:14:31.260Z,11.10
2019-02-23T02:16:59.003Z,11.10
2019-02-23T02:19:27.783Z,11.10
2019-02-23T02:21:55.978Z,11.10
2019-02-23T02:24:23.431Z,11.00
2019-02-23T02:26:50.687Z,11.00
2019-02-23T02:29:18.041Z,11.00
2019-02-23T02:31:46.298Z,11.00
2019-02-23T02:34:16.854Z,11.00
2019-02-23T02:36:44.724Z,10.90
2019-02-23T02:39:13.356Z,10.90
2019-02-23T02:41:41.382Z,10.90
2019-02-23T02:44:10.065Z,10.90
2019-02-23T02:46:37.806Z,10.90
2019-02-23T02:49:05.654Z,10.90
2019-02-23T02:51:33.444Z,10.90
2019-02-23T02:54:01.277Z,10.80
2019-02-23T02:56:28.745Z,10.80
2019-02-23T02:58:56.624Z,10.80
2019-02-23T03:01:25.855Z,10.80
2019-02-23T03:03:53.525Z,10.80
2019-02-23T03:06:21.679Z,10.70
2019-02-23T03:08:49.699Z,10.70
2019-02-23T03:11:17.597Z,10.70
2019-02-23T03:13:45.423Z,10.70
2019-02-23T03:16:13.065Z,10.70
2019-02-23T03:18:40.706Z,10.70
2019-02-23T03:21:08.452Z,10.60
2019-02-23T03:23:36.242Z,10.70
2019-02-23T03:26:03.852Z,10.60
2019-02-23T03:28:31.760Z,10.70
2019-02-23T03:30:59.315Z,10.60
2019-02-23T03:33:27.021Z,10.60
2019-02-23T03:35:54.709Z,10.60
2019-02-23T03:38:22.120Z,10.60
2019-02-23T03:40:50.366Z,10.70
2019-02-23T03:43:18.217Z,10.70
2019-02-23T03:45:45.944Z,10.70
2019-02-23T03:48:13.384Z,10.70
2019-02-23T03:50:48.674Z,10.70
2019-02-23T03:53:09.942Z,10.70
2019-02-23T03:55:37.691Z,10.70
2019-02-23T03:58:05.877Z,10.70
2019-02-23T04:00:34.245Z,10.70
2019-02-23T04:03:01.528Z,10.70
2019-02-23T04:05:29.370Z,10.70
2019-02-23T04:07:57.130Z,10.70
2019-02-23T04:10:24.776Z,10.70
2019-02-23T04:12:52.045Z,10.70
2019-02-23T04:15:19.633Z,10.80
2019-02-23T04:17:47.336Z,10.80
2019-02-23T04:20:14.862Z,10.80
2019-02-23T04:22:45.375Z,10.80
2019-02-23T04:25:13.540Z,10.80
2019-02-23T04:27:43.757Z,10.50
2019-02-23T04:30:11.476Z,10.80
2019-02-23T04:32:39.244Z,10.80
2019-02-23T04:35:06.709Z,10.70
2019-02-23T04:37:34.486Z,10.70
2019-02-23T04:40:02.492Z,10.70
2019-02-23T04:42:30.209Z,10.70
2019-02-23T04:44:57.738Z,10.70
2019-02-23T04:47:25.229Z,10.70
2019-02-23T04:49:53.861Z,10.70
2019-02-23T04:52:21.238Z,10.70
2019-02-23T04:54:48.912Z,10.70
2019-02-23T04:57:17.133Z,10.70
2019-02-23T04:59:45.184Z,10.70
2019-02-23T05:02:12.502Z,10.70
2019-02-23T05:04:40.022Z,10.70
2019-02-23T05:07:07.871Z,10.70
2019-02-23T05:09:35.143Z,10.70
2019-02-23T05:12:02.808Z,10.70
2019-02-23T05:14:30.268Z,10.70
2019-02-23T05:16:58.562Z,10.60
2019-02-23T05:19:26.574Z,10.70
2019-02-23T05:21:53.954Z,10.60
2019-02-23T05:24:21.508Z,10.60
2019-02-23T05:26:49.370Z,10.60
2019-02-23T05:29:17.098Z,10.60
2019-02-23T05:31:44.752Z,10.60
2019-02-23T05:34:12.563Z,10.60
2019-02-23T05:36:40.039Z,10.50
2019-02-23T05:39:07.744Z,10.60
2019-02-23T05:41:35.834Z,10.60
2019-02-23T05:44:03.302Z,10.50
2019-02-23T05:46:30.933Z,10.50
2019-02-23T05:48:58.980Z,10.50
2019-02-23T05:51:38.067Z,10.50
2019-02-23T05:53:56.174Z,10.50
2019-02-23T05:56:24.013Z,10.50
2019-02-23T05:58:51.566Z,10.50
2019-02-23T06:01:20.184Z,10.50
2019-02-23T06:03:47.884Z,10.40
2019-02-23T06:06:15.945Z,10.50
2019-02-23T06:08:43.899Z,10.40
2019-02-23T06:11:11.981Z,10.40
2019-02-23T06:13:40.052Z,10.40
2019-02-23T06:16:08.524Z,10.40
2019-02-23T06:18:36.322Z,10.50
2019-02-23T06:21:05.031Z,10.40
2019-02-23T06:23:32.870Z,10.40
2019-02-23T06:26:00.903Z,10.40
2019-02-23T06:28:28.675Z,10.40
2019-02-23T06:30:56.972Z,10.40
2019-02-23T06:33:24.738Z,10.40
2019-02-23T06:35:52.843Z,10.30
2019-02-23T06:38:20.766Z,10.30
2019-02-23T06:40:48.465Z,10.30
2019-02-23T06:43:16.386Z,10.30
2019-02-23T06:45:44.470Z,10.30
2019-02-23T06:48:12.835Z,10.30
2019-02-23T06:50:41.270Z,10.30
2019-02-23T06:53:12.325Z,10.30
2019-02-23T06:55:40.236Z,10.30
2019-02-23T06:58:08.510Z,10.30
2019-02-23T07:00:36.756Z,10.30
2019-02-23T07:03:04.755Z,10.30
2019-02-23T07:05:36.034Z,10.30
2019-02-23T07:08:04.151Z,10.20
2019-02-23T07:10:32.180Z,10.20
2019-02-23T07:12:59.749Z,10.20
2019-02-23T07:15:27.770Z,10.20
2019-02-23T07:17:55.470Z,10.20
2019-02-23T07:20:23.723Z,10.20
2019-02-23T07:22:54.491Z,10.20
2019-02-23T07:25:22.913Z,10.20
2019-02-23T07:27:50.768Z,10.20
2019-02-23T07:30:19.621Z,10.20
2019-02-23T07:32:47.607Z,10.20
2019-02-23T07:35:15.800Z,10.20
2019-02-23T07:37:43.903Z,10.20
2019-02-23T07:40:11.765Z,10.20
2019-02-23T07:42:39.569Z,10.20
2019-02-23T07:45:08.340Z,10.20
2019-02-23T07:47:36.398Z,10.20
2019-02-23T07:50:08.051Z,10.20
2019-02-23T07:52:36.410Z,10.30
2019-02-23T07:55:05.417Z,10.20
2019-02-23T07:57:33.450Z,10.50
2019-02-23T08:00:00.905Z,10.30
2019-02-23T08:02:28.682Z,10.30
2019-02-23T08:04:57.678Z,10.20
2019-02-23T08:07:25.379Z,10.20
2019-02-23T08:09:53.069Z,10.20
2019-02-23T08:12:21.032Z,10.30
2019-02-23T08:14:49.268Z,10.20
2019-02-23T08:17:16.971Z,10.30
2019-02-23T08:19:45.227Z,10.30
2019-02-23T08:22:13.482Z,10.30
2019-02-23T08:24:41.021Z,10.30
2019-02-23T08:27:08.733Z,10.20
2019-02-23T08:29:36.499Z,10.30
2019-02-23T08:32:04.622Z,10.30
2019-02-23T08:34:33.524Z,10.30
2019-02-23T08:37:04.456Z,10.30
2019-02-23T08:39:32.380Z,10.30
2019-02-23T08:42:00.716Z,10.30
2019-02-23T08:44:28.547Z,10.30
2019-02-23T08:46:56.948Z,10.30
2019-02-23T08:49:24.603Z,10.30
2019-02-23T08:51:52.549Z,10.30
2019-02-23T08:54:20.763Z,10.30
2019-02-23T08:56:48.962Z,10.30
2019-02-23T08:59:17.197Z,10.40
2019-02-23T09:01:45.473Z,10.30
2019-02-23T09:04:12.958Z,10.30
2019-02-23T09:06:40.531Z,10.40
2019-02-23T09:09:08.320Z,10.20
2019-02-23T09:11:36.295Z,10.40
2019-02-23T09:14:04.185Z,10.30
2019-02-23T09:16:31.733Z,10.60
2019-02-23T09:18:59.737Z,10.30
2019-02-23T09:21:27.715Z,10.30
2019-02-23T09:23:55.496Z,10.40
2019-02-23T09:26:23.055Z,10.40
2019-02-23T09:28:50.478Z,10.40
2019-02-23T09:31:19.613Z,10.40
2019-02-23T09:33:47.748Z,10.40
2019-02-23T09:36:15.646Z,10.40
2019-02-23T09:38:44.413Z,10.50
2019-02-23T09:41:12.366Z,10.40
2019-02-23T09:43:40.042Z,10.40
2019-02-23T09:46:07.971Z,10.40
2019-02-23T09:48:35.505Z,10.50
2019-02-23T09:51:02.950Z,10.50
2019-02-23T09:53:31.307Z,10.50
2019-02-23T09:55:58.943Z,10.50
2019-02-23T09:58:26.343Z,10.50
2019-02-23T10:00:54.529Z,10.50
2019-02-23T10:03:21.945Z,10.60
2019-02-23T10:05:49.775Z,10.60
2019-02-23T10:08:17.608Z,10.50
2019-02-23T10:10:45.400Z,10.60
2019-02-23T10:13:12.982Z,10.60
2019-02-23T10:15:41.301Z,10.70
2019-02-23T10:18:09.009Z,10.60
2019-02-23T10:20:36.787Z,10.70
2019-02-23T10:23:05.100Z,10.70
2019-02-23T10:25:32.863Z,10.70
2019-02-23T10:28:01.436Z,10.70
2019-02-23T10:30:29.407Z,10.70
2019-02-23T10:32:57.584Z,10.70
2019-02-23T10:35:25.093Z,10.70
2019-02-23T10:37:52.911Z,10.80
2019-02-23T10:40:20.725Z,10.80
2019-02-23T10:42:49.044Z,10.80
2019-02-23T10:45:17.282Z,10.80
2019-02-23T10:47:45.686Z,10.80
2019-02-23T10:50:13.867Z,10.90
2019-02-23T10:52:41.847Z,10.90
2019-02-23T10:55:09.908Z,10.90
2019-02-23T10:57:37.711Z,10.90
2019-02-23T11:00:10.170Z,10.60
2019-02-23T11:02:38.133Z,10.90
2019-02-23T11:05:07.799Z,10.80
2019-02-23T11:07:36.012Z,11.00
2019-02-23T11:10:04.341Z,11.00
2019-02-23T11:12:32.328Z,11.00
2019-02-23T11:15:00.301Z,11.00
2019-02-23T11:17:28.415Z,11.00
2019-02-23T11:19:56.260Z,11.10
2019-02-23T11:22:25.150Z,11.10
2019-02-23T11:24:53.813Z,11.20
2019-02-23T11:27:21.883Z,11.10
2019-02-23T11:29:49.385Z,11.20
2019-02-23T11:32:16.960Z,11.20
2019-02-23T11:34:44.710Z,11.20
2019-02-23T11:37:12.879Z,11.30
2019-02-23T11:39:41.442Z,11.30
2019-02-23T11:42:10.747Z,11.30
2019-02-23T11:44:38.608Z,11.30
2019-02-23T11:47:06.272Z,11.30
2019-02-23T11:49:34.024Z,11.40
2019-02-23T11:52:02.316Z,11.40
2019-02-23T11:54:30.405Z,11.50
2019-02-23T11:56:57.995Z,11.50
2019-02-23T11:59:25.524Z,11.50
2019-02-23T12:01:53.381Z,11.50
2019-02-23T12:04:21.829Z,11.60
2019-02-23T12:06:49.935Z,11.60
2019-02-23T12:09:17.957Z,11.60
2019-02-23T12:11:45.717Z,11.60
2019-02-23T12:14:13.359Z,11.70
2019-02-23T12:16:41.452Z,11.70
2019-02-23T12:19:09.971Z,11.80
2019-02-23T12:21:38.353Z,11.80
2019-02-23T12:24:06.509Z,11.80
2019-02-23T12:26:34.841Z,11.90
2019-02-23T12:29:02.401Z,11.90
2019-02-23T12:31:29.923Z,11.90
2019-02-23T12:33:58.568Z,12.00
2019-02-23T12:36:27.328Z,12.00
2019-02-23T12:38:56.390Z,12.00
2019-02-23T12:41:25.014Z,12.10
2019-02-23T12:43:53.637Z,12.10
2019-02-23T12:46:21.514Z,12.20
2019-02-23T12:48:49.911Z,12.20
2019-02-23T12:51:18.159Z,12.20
2019-02-23T12:53:46.686Z,12.30
2019-02-23T12:56:15.361Z,12.30
2019-02-23T12:58:43.297Z,12.30
2019-02-23T13:01:12.117Z,12.30
2019-02-23T13:03:39.857Z,12.40
2019-02-23T13:06:07.868Z,12.40
2019-02-23T13:09:11.793Z,12.40
2019-02-23T13:11:39.952Z,12.40
2019-02-23T13:14:42.684Z,12.40
2019-02-23T13:17:47.219Z,12.40
2019-02-23T13:20:36.743Z,12.50
2019-02-23T13:23:17.779Z,12.50
2019-02-23T13:26:15.450Z,12.50
2019-02-23T13:29:08.082Z,12.60
2019-02-23T13:32:04.104Z,12.60
2019-02-23T13:35:08.838Z,12.60
2019-02-23T13:38:00.425Z,12.60
2019-02-23T13:41:00.565Z,12.60
2019-02-23T13:43:52.907Z,12.70
2019-02-23T13:46:44.460Z,12.70
2019-02-23T13:49:49.956Z,12.80
2019-02-23T13:53:00.078Z,12.80
2019-02-23T13:55:53.860Z,12.80
2019-02-23T13:58:51.294Z,12.80
2019-02-23T14:01:54.847Z,12.80
2019-02-23T14:05:16.323Z,12.90
2019-02-23T14:08:03.996Z,12.90
2019-02-23T14:11:08.327Z,12.90
2019-02-23T14:13:56.964Z,12.90
2019-02-23T14:16:52.497Z,13.00
2019-02-23T14:20:15.049Z,13.00
2019-02-23T14:23:18.615Z,13.00
2019-02-23T14:26:38.822Z,13.00
2019-02-23T14:29:42.763Z,13.00
2019-02-23T14:32:46.912Z,13.10
2019-02-23T14:35:41.439Z,13.00
2019-02-23T14:38:54.106Z,13.00
2019-02-23T14:41:54.252Z,13.10
2019-02-23T14:44:30.261Z,13.10
2019-02-23T14:47:30.322Z,13.10
2019-02-23T14:50:46.675Z,13.10
2019-02-23T14:53:39.427Z,13.20
2019-02-23T14:57:01.450Z,13.20
2019-02-23T14:59:58.171Z,13.30
2019-02-23T15:02:53.849Z,13.30
2019-02-23T15:05:51.567Z,13.30
2019-02-23T15:08:44.416Z,13.30
2019-02-23T15:11:41.695Z,13.30
2019-02-23T15:14:59.086Z,13.30
2019-02-23T15:18:11.865Z,13.30
2019-02-23T15:21:17.921Z,13.30
2019-02-23T15:24:09.188Z,13.40
2019-02-23T15:27:20.369Z,13.40
2019-02-23T15:30:15.473Z,13.40
2019-02-23T15:33:13.133Z,13.40
2019-02-23T15:35:58.900Z,13.50
2019-02-23T15:39:14.127Z,13.50
2019-02-23T15:42:22.688Z,13.50
2019-02-23T15:45:14.925Z,13.50
2019-02-23T15:48:11.513Z,13.50
2019-02-23T15:50:41.966Z,13.50
2019-02-23T15:53:09.617Z,13.20
2019-02-23T15:55:37.459Z,13.50
2019-02-23T15:58:05.640Z,13.50
2019-02-23T16:00:35.019Z,13.60
2019-02-23T16:03:03.086Z,13.60
2019-02-23T16:05:34.087Z,13.60
2019-02-23T16:08:06.502Z,13.60
2019-02-23T16:10:34.599Z,13.60
2019-02-23T16:13:02.026Z,13.60
2019-02-23T16:15:30.037Z,13.50
2019-02-23T16:17:57.776Z,13.60
2019-02-23T16:20:27.763Z,13.50
2019-02-23T16:22:55.983Z,13.50
2019-02-23T16:25:38.036Z,13.50
2019-02-23T16:28:00.022Z,13.50
2019-02-23T16:30:27.815Z,13.50
2019-02-23T16:32:55.868Z,13.50
2019-02-23T16:35:23.346Z,13.40
2019-02-23T16:37:51.362Z,13.40
2019-02-23T16:40:18.964Z,13.40
2019-02-23T16:42:46.519Z,13.30
2019-02-23T16:45:14.232Z,13.30
2019-02-23T16:47:42.496Z,13.20
2019-02-23T16:50:10.372Z,13.20
2019-02-23T16:52:38.795Z,13.20
2019-02-23T16:55:06.941Z,13.20
2019-02-23T16:57:35.044Z,13.10
2019-02-23T17:00:04.098Z,13.10
2019-02-23T17:02:32.203Z,13.10
2019-02-23T17:04:59.981Z,13.10
2019-02-23T17:07:28.021Z,13.00
2019-02-23T17:09:56.044Z,13.40
2019-02-23T17:12:26.197Z,13.00
2019-02-23T17:14:54.433Z,13.00
2019-02-23T17:17:22.336Z,13.00
2019-02-23T17:19:50.113Z,13.00
2019-02-23T17:22:18.114Z,13.00
2019-02-23T17:24:45.922Z,12.90
2019-02-23T17:27:13.888Z,12.90
2019-02-23T17:29:41.619Z,12.90
2019-02-23T17:32:09.521Z,12.90
2019-02-23T17:34:37.194Z,12.90
2019-02-23T17:37:05.685Z,12.80
2019-02-23T17:39:33.143Z,12.80
2019-02-23T17:42:01.648Z,12.80
2019-02-23T17:44:29.266Z,12.80
2019-02-23T17:46:57.114Z,12.80
2019-02-23T17:49:25.119Z,12.80
2019-02-23T17:51:52.831Z,12.70
2019-02-23T17:54:21.336Z,12.70
2019-02-23T17:56:49.516Z,12.70
2019-02-23T17:59:17.397Z,12.70
2019-02-23T18:01:45.271Z,12.70
2019-02-23T18:04:13.171Z,12.70
2019-02-23T18:06:41.502Z,12.70
2019-02-23T18:09:09.451Z,12.70
2019-02-23T18:11:37.152Z,12.70
2019-02-23T18:14:04.746Z,12.60
2019-02-23T18:16:32.862Z,12.60
2019-02-23T18:19:00.618Z,12.60
2019-02-23T18:21:28.318Z,12.60
2019-02-23T18:23:56.003Z,12.50
2019-02-23T18:26:24.456Z,12.50
2019-02-23T18:28:52.016Z,12.60
2019-02-23T18:31:20.554Z,12.50
2019-02-23T18:33:48.469Z,12.50
2019-02-23T18:36:16.374Z,12.50
2019-02-23T18:38:44.878Z,12.50
2019-02-23T18:41:13.201Z,12.50
2019-02-23T18:43:41.137Z,12.40
2019-02-23T18:46:08.866Z,12.40
2019-02-23T18:48:36.794Z,12.40
2019-02-23T18:51:04.537Z,12.40
2019-02-23T18:53:31.976Z,12.40
2019-02-23T18:55:59.671Z,12.40
2019-02-23T18:58:27.531Z,12.40
2019-02-23T19:00:55.395Z,12.40
2019-02-23T19:03:23.304Z,12.40
2019-02-23T19:05:51.484Z,12.60
2019-02-23T19:08:19.685Z,12.30
2019-02-23T19:10:47.876Z,12.30
2019-02-23T19:13:15.653Z,12.30
2019-02-23T19:15:43.086Z,12.30
2019-02-23T19:18:13.975Z,12.30
2019-02-23T19:20:42.515Z,12.30
2019-02-23T19:23:11.409Z,12.30
2019-02-23T19:25:39.156Z,12.20
2019-02-23T19:28:06.951Z,12.30
2019-02-23T19:30:35.189Z,12.20
2019-02-23T19:33:02.677Z,12.20
2019-02-23T19:35:31.551Z,12.20
2019-02-23T19:38:00.325Z,12.20
2019-02-23T19:40:27.952Z,12.20
2019-02-23T19:42:57.095Z,12.20
2019-02-23T19:45:25.036Z,12.20
2019-02-23T19:47:53.006Z,12.20
2019-02-23T19:50:26.918Z,12.10
2019-02-23T19:52:54.846Z,12.20
2019-02-23T19:55:22.973Z,12.10
2019-02-23T19:57:50.634Z,12.10
2019-02-23T20:00:18.854Z,12.10
2019-02-23T20:02:47.885Z,12.10
2019-02-23T20:05:15.558Z,12.10
2019-02-23T20:07:43.261Z,12.10
2019-02-23T20:10:11.282Z,12.10
2019-02-23T20:12:38.894Z,12.10
2019-02-23T20:15:06.552Z,12.20
2019-02-23T20:17:34.421Z,12.10
2019-02-23T20:20:02.217Z,12.00
2019-02-23T20:22:31.416Z,12.00
2019-02-23T20:24:59.101Z,12.00
2019-02-23T20:27:27.217Z,12.00
2019-02-23T20:29:55.474Z,12.00
2019-02-23T20:32:23.660Z,11.90
2019-02-23T20:34:51.492Z,11.90
2019-02-23T20:37:19.552Z,11.90
2019-02-23T20:39:47.205Z,11.90
2019-02-23T20:42:14.793Z,11.90
2019-02-23T20:44:43.755Z,11.90
2019-02-23T20:47:12.101Z,11.90
2019-02-23T20:49:40.513Z,11.80
2019-02-23T20:52:09.038Z,11.90
2019-02-23T20:54:36.948Z,11.80
2019-02-23T20:57:08.038Z,11.80
2019-02-23T20:59:34.861Z,11.80
2019-02-23T21:02:02.679Z,11.80
2019-02-23T21:04:31.267Z,11.80
2019-02-23T21:06:59.224Z,11.80
2019-02-23T21:09:27.141Z,11.70
2019-02-23T21:11:54.522Z,11.70
2019-02-23T21:14:22.513Z,11.70
2019-02-23T21:16:50.149Z,11.70
2019-02-23T21:19:18.811Z,11.70
2019-02-23T21:21:47.253Z,11.70
2019-02-23T21:24:14.856Z,11.70
2019-02-23T21:26:42.735Z,11.60
2019-02-23T21:29:10.839Z,11.60
2019-02-23T21:31:40.556Z,11.60
2019-02-23T21:34:08.113Z,11.60
2019-02-23T21:36:36.801Z,11.50
2019-02-23T21:39:05.132Z,11.50
2019-02-23T21:41:33.178Z,11.50
2019-02-23T21:44:02.171Z,11.50
2019-02-23T21:46:30.112Z,11.50
2019-02-23T21:48:58.079Z,11.50
2019-02-23T21:51:26.255Z,11.50
2019-02-23T21:53:54.056Z,11.40
2019-02-23T21:56:21.743Z,11.40
2019-02-23T21:58:49.389Z,11.40
2019-02-23T22:01:18.148Z,11.30
2019-02-23T22:03:45.646Z,11.30
2019-02-23T22:06:13.548Z,11.30
2019-02-23T22:08:41.292Z,11.30
2019-02-23T22:11:08.852Z,11.30
2019-02-23T22:13:36.543Z,11.30
2019-02-23T22:16:04.588Z,11.20
2019-02-23T22:18:32.319Z,11.20
2019-02-23T22:21:00.046Z,11.20
2019-02-23T22:23:28.113Z,11.20
2019-02-23T22:25:55.809Z,11.10
2019-02-23T22:28:24.044Z,11.20
2019-02-23T22:30:52.126Z,11.20
2019-02-23T22:33:20.806Z,11.20
2019-02-23T22:35:48.376Z,11.10
2019-02-23T22:38:16.041Z,11.10
2019-02-23T22:40:43.891Z,11.10
2019-02-23T22:43:12.360Z,11.10
2019-02-23T22:45:39.757Z,11.10
2019-02-23T22:48:07.328Z,11.10
2019-02-23T22:50:38.114Z,11.10
2019-02-23T22:53:05.799Z,11.10
2019-02-23T22:55:33.244Z,11.10
2019-02-23T22:58:00.694Z,11.10
2019-02-23T23:00:41.158Z,11.10
2019-02-23T23:03:08.783Z,11.10
2019-02-23T23:05:36.712Z,11.00
2019-02-23T23:08:04.467Z,11.00
2019-02-23T23:10:32.264Z,11.00
2019-02-23T23:13:00.062Z,11.00
2019-02-23T23:15:28.076Z,11.00
2019-02-23T23:17:56.265Z,11.00
2019-02-23T23:20:23.972Z,11.00
2019-02-23T23:22:51.643Z,11.00
2019-02-23T23:25:19.867Z,11.00
2019-02-23T23:27:49.499Z,11.00
2019-02-23T23:30:17.024Z,11.00
2019-02-23T23:32:45.501Z,11.10
2019-02-23T23:35:12.951Z,11.00
2019-02-23T23:37:40.898Z,10.90
2019-02-23T23:40:08.732Z,11.00
2019-02-23T23:42:36.553Z,10.90
2019-02-23T23:45:04.475Z,10.90
2019-02-23T23:47:32.872Z,11.00
2019-02-23T23:50:00.341Z,10.90
2019-02-23T23:52:27.796Z,10.90
2019-02-23T23:54:55.411Z,10.90
2019-02-23T23:57:23.316Z,10.90
2019-02-23T23:59:51.711Z,10.90
